createdAt,value
2023-03-29T00:00:00.182Z,0
2023-03-29T00:05:00.173Z,0
2023-03-29T00:10:00.177Z,0
2023-03-29T00:15:00.201Z,0
2023-03-29T00:20:00.179Z,0
2023-03-29T00:25:00.178Z,0
2023-03-29T00:30:00.189Z,0
2023-03-29T00:35:00.194Z,0
2023-03-29T00:40:00.175Z,0
2023-03-29T00:45:00.188Z,0
2023-03-29T00:50:00.187Z,0
2023-03-29T00:55:00.187Z,0
2023-03-29T01:00:00.265Z,0
2023-03-29T01:05:00.183Z,0
2023-03-29T01:10:00.192Z,0
2023-03-29T01:15:00.192Z,0
2023-03-29T01:20:00.211Z,0
2023-03-29T01:25:00.206Z,0
2023-03-29T01:30:00.277Z,0
2023-03-29T01:35:00.190Z,0
2023-03-29T01:40:00.168Z,0
2023-03-29T01:45:00.180Z,0
2023-03-29T01:50:00.220Z,0
2023-03-29T01:55:00.194Z,0
2023-03-29T02:00:00.236Z,0
2023-03-29T02:05:00.191Z,0
2023-03-29T02:10:00.196Z,0
2023-03-29T02:15:00.189Z,0
2023-03-29T02:20:00.180Z,0
2023-03-29T02:25:00.194Z,0
2023-03-29T02:30:00.215Z,0
2023-03-29T02:35:00.253Z,0
2023-03-29T02:40:00.221Z,0
2023-03-29T02:45:00.583Z,0
2023-03-29T02:50:00.309Z,0
2023-03-29T03:20:00.745Z,0
2023-03-29T03:25:00.654Z,0
2023-03-29T03:30:00.874Z,0
2023-03-29T03:35:00.695Z,0
2023-03-29T03:40:00.674Z,0
2023-03-29T03:45:00.628Z,0
2023-03-29T03:50:00.751Z,0
2023-03-29T03:55:00.985Z,0
2023-03-29T04:00:00.842Z,0
2023-03-29T04:05:00.951Z,0
2023-03-29T04:10:00.757Z,0
2023-03-29T04:15:00.871Z,0
2023-03-29T04:20:00.647Z,0
2023-03-29T04:25:00.650Z,0
2023-03-29T04:30:00.748Z,0
2023-03-29T04:35:00.965Z,0
2023-03-29T04:40:00.625Z,0
2023-03-29T04:45:00.793Z,0
2023-03-29T04:50:00.923Z,0
2023-03-29T04:55:00.775Z,4
2023-03-29T05:00:00.724Z,4
2023-03-29T05:05:00.757Z,17
2023-03-29T05:10:00.721Z,31
2023-03-29T05:15:00.808Z,45
2023-03-29T05:20:00.744Z,89
2023-03-29T05:25:00.882Z,124
2023-03-29T05:30:00.753Z,172
2023-03-29T05:35:00.850Z,160
2023-03-29T05:40:05.742Z,266
2023-03-29T05:45:00.745Z,438
2023-03-29T05:50:00.678Z,531
2023-03-29T05:55:00.873Z,566
2023-03-29T06:00:00.607Z,566
2023-03-29T06:05:00.750Z,717
2023-03-29T06:10:01.023Z,807
2023-03-29T06:20:00.422Z,908
2023-03-29T06:25:00.387Z,1022
2023-03-29T06:30:00.401Z,1297
2023-03-29T06:35:00.415Z,1458
2023-03-29T06:40:00.406Z,1458
2023-03-29T06:45:00.448Z,1399
2023-03-29T06:50:00.475Z,1639
2023-03-29T06:55:02.084Z,2081
2023-03-29T07:00:00.533Z,2081
2023-03-29T07:05:00.512Z,2351
2023-03-29T07:10:00.571Z,3004
2023-03-29T07:15:00.492Z,4891
2023-03-29T07:20:00.422Z,4891
2023-03-29T07:25:00.414Z,4891
2023-03-29T07:30:00.493Z,5526
2023-03-29T07:35:00.415Z,5526
2023-03-29T07:40:00.473Z,6237
2023-03-29T07:45:00.418Z,7057
2023-03-29T07:55:00.409Z,7967
2023-03-29T08:00:00.406Z,11513
2023-03-29T08:05:00.453Z,11866
2023-03-29T08:10:00.598Z,11316
2023-03-29T08:15:00.395Z,10051
2023-03-29T08:25:00.410Z,10051
2023-03-29T08:30:00.410Z,10051
2023-03-29T08:35:00.407Z,10051
2023-03-29T08:40:00.660Z,10051
2023-03-29T08:45:00.418Z,10051
2023-03-29T08:50:00.395Z,10051
2023-03-29T08:55:00.455Z,10051
2023-03-29T09:00:00.411Z,10051
2023-03-29T09:05:00.431Z,10051
2023-03-29T09:10:00.591Z,10051
2023-03-29T09:15:00.598Z,10051
2023-03-29T09:20:00.547Z,10051
2023-03-29T09:25:00.589Z,10051
2023-03-29T09:30:00.427Z,10051
2023-03-29T09:35:00.426Z,10051
2023-03-29T09:40:01.222Z,10051
2023-03-29T09:45:00.411Z,10051
2023-03-29T09:50:00.448Z,10051
2023-03-29T09:55:00.442Z,10051
2023-03-29T10:00:00.578Z,10051
2023-03-29T10:05:00.653Z,10051
2023-03-29T10:10:00.507Z,10051
2023-03-29T10:15:00.551Z,10051
2023-03-29T10:20:03.758Z,10051
2023-03-29T10:25:00.469Z,10051
2023-03-29T10:30:00.411Z,11508
2023-03-29T10:35:00.513Z,19788
2023-03-29T10:40:00.445Z,22893
2023-03-29T10:45:00.483Z,24626
2023-03-29T10:50:00.411Z,21807
2023-03-29T10:55:00.429Z,14474
2023-03-29T11:00:00.415Z,17844
2023-03-29T11:05:00.503Z,17844
2023-03-29T11:10:00.611Z,11176
2023-03-29T11:15:00.425Z,15396
2023-03-29T11:20:02.392Z,13636
2023-03-29T11:25:00.533Z,13636
2023-03-29T11:30:00.422Z,15325
2023-03-29T11:35:00.495Z,19620
2023-03-29T11:40:00.470Z,17571
2023-03-29T11:45:00.426Z,32196
2023-03-29T11:50:00.414Z,12042
2023-03-29T11:55:00.575Z,12084
2023-03-29T12:00:00.478Z,8379
2023-03-29T12:05:00.561Z,10656
2023-03-29T12:10:00.404Z,8397
2023-03-29T12:15:00.432Z,7422
2023-03-29T12:20:00.396Z,5852
2023-03-29T12:25:00.504Z,4606
2023-03-29T12:30:00.393Z,8694
2023-03-29T12:35:00.421Z,9788
2023-03-29T12:40:00.520Z,8700
2023-03-29T12:45:00.426Z,8698
2023-03-29T12:50:00.560Z,5988
2023-03-29T12:55:00.395Z,5981
2023-03-29T13:00:00.565Z,4689
2023-03-29T13:05:00.586Z,7730
2023-03-29T13:10:00.405Z,6841
2023-03-29T13:15:00.394Z,6841
2023-03-29T13:20:00.421Z,6841
2023-03-29T13:25:00.432Z,4744
2023-03-29T13:30:00.432Z,2280
2023-03-29T13:35:00.415Z,2593
2023-03-29T13:40:00.399Z,6081
2023-03-29T13:45:00.454Z,6080
2023-03-29T13:50:00.393Z,4780
2023-03-29T13:55:00.414Z,4784
2023-03-29T14:00:00.414Z,5404
2023-03-29T14:05:00.554Z,6855
2023-03-29T14:10:00.440Z,7746
2023-03-29T14:15:00.488Z,8730
2023-03-29T14:20:00.404Z,4238
2023-03-29T14:25:00.627Z,2214
2023-03-29T14:30:00.413Z,2214
2023-03-29T14:35:00.418Z,3211
2023-03-29T14:40:00.507Z,4068
2023-03-29T14:45:00.420Z,5153
2023-03-29T14:50:00.396Z,3561
2023-03-29T14:55:00.483Z,4026
2023-03-29T15:00:00.495Z,4547
2023-03-29T15:05:00.419Z,5765
2023-03-29T15:10:00.555Z,5765
2023-03-29T15:15:00.409Z,6485
2023-03-29T15:20:00.791Z,6485
2023-03-29T15:25:00.409Z,5764
2023-03-29T15:30:00.424Z,4010
2023-03-29T15:35:00.420Z,4010
2023-03-29T15:40:00.490Z,3551
2023-03-29T15:45:00.413Z,2799
2023-03-29T15:50:00.422Z,2790
2023-03-29T15:55:00.390Z,3148
2023-03-29T16:00:00.412Z,2207
2023-03-29T16:05:00.421Z,1962
2023-03-29T16:10:00.476Z,1962
2023-03-29T16:15:00.410Z,1962
2023-03-29T16:20:00.400Z,1962
2023-03-29T16:25:00.418Z,1545
2023-03-29T16:30:00.504Z,1545
2023-03-29T16:35:00.565Z,1545
2023-03-29T16:40:00.426Z,1952
2023-03-29T16:45:00.401Z,1737
2023-03-29T16:50:00.457Z,1544
2023-03-29T16:55:00.418Z,1215
2023-03-29T17:00:00.438Z,1079
2023-03-29T17:05:00.442Z,1079
2023-03-29T17:10:00.417Z,1079
2023-03-29T17:15:00.430Z,1079
2023-03-29T17:20:00.394Z,399
2023-03-29T17:25:00.419Z,201
2023-03-29T17:30:00.464Z,170
2023-03-29T17:35:00.455Z,169
2023-03-29T17:40:00.391Z,169
2023-03-29T17:45:00.508Z,121
2023-03-29T17:50:00.394Z,122
2023-03-29T17:55:00.866Z,86
2023-03-29T18:00:00.504Z,52
2023-03-29T18:05:00.411Z,52
2023-03-29T18:10:00.487Z,31
2023-03-29T18:15:00.450Z,17
2023-03-29T18:20:00.466Z,10
2023-03-29T18:25:00.416Z,10
2023-03-29T18:30:00.468Z,10
2023-03-29T18:35:00.388Z,3
2023-03-29T18:40:00.412Z,3
2023-03-29T18:45:00.427Z,3
2023-03-29T18:50:00.436Z,3
2023-03-29T18:55:00.439Z,3
2023-03-29T19:00:00.418Z,3
2023-03-29T19:05:00.437Z,3
2023-03-29T19:10:00.392Z,3
2023-03-29T19:15:00.474Z,3
2023-03-29T19:20:00.432Z,3
2023-03-29T19:25:00.413Z,3
2023-03-29T19:30:00.436Z,0
2023-03-29T19:35:00.408Z,0
2023-03-29T19:40:00.410Z,0
2023-03-29T19:45:00.433Z,0
2023-03-29T19:50:00.555Z,0
2023-03-29T19:55:00.510Z,0
2023-03-29T20:00:00.447Z,0
2023-03-29T20:05:00.708Z,0
2023-03-29T20:10:00.391Z,0
2023-03-29T20:15:00.411Z,0
2023-03-29T20:20:00.506Z,0
2023-03-29T20:25:00.430Z,0
2023-03-29T20:30:00.417Z,0
2023-03-29T20:35:00.575Z,0
2023-03-29T20:40:00.432Z,0
2023-03-29T20:45:00.407Z,0
2023-03-29T20:50:00.592Z,0
2023-03-29T20:55:00.414Z,0
2023-03-29T21:00:00.416Z,0
2023-03-29T21:05:00.412Z,0
2023-03-29T21:10:00.396Z,0
2023-03-29T21:15:00.422Z,0
2023-03-29T21:20:00.416Z,0
2023-03-29T21:25:00.413Z,0
2023-03-29T21:30:00.410Z,0
2023-03-29T21:35:00.516Z,0
2023-03-29T21:40:00.466Z,0
2023-03-29T21:45:00.516Z,0
2023-03-29T21:50:00.424Z,0
2023-03-29T21:55:00.452Z,0
2023-03-29T22:00:00.427Z,0
2023-03-29T22:05:00.417Z,0
2023-03-29T22:10:00.401Z,0
2023-03-29T22:15:00.449Z,0
2023-03-29T22:20:00.412Z,0
2023-03-29T22:25:00.417Z,0
2023-03-29T22:30:00.415Z,0
2023-03-29T22:35:00.428Z,0
2023-03-29T22:40:00.448Z,0
2023-03-29T22:45:00.424Z,0
2023-03-29T22:50:00.407Z,0
2023-03-29T22:55:00.446Z,0
2023-03-29T23:00:00.525Z,0
2023-03-29T23:05:00.421Z,0
2023-03-29T23:10:00.560Z,0
2023-03-29T23:15:00.443Z,0
2023-03-29T23:20:01.589Z,0
2023-03-29T23:25:00.424Z,0
2023-03-29T23:30:00.427Z,0
2023-03-29T23:35:00.468Z,0
2023-03-29T23:40:00.393Z,0
2023-03-29T23:45:00.451Z,0
2023-03-29T23:50:00.582Z,0
2023-03-29T23:55:00.545Z,0
